Time,TemperatureF,DewpointF,PressureIn,WindDirection,WindDirectionDegrees,WindSpeedMPH,WindSpeedGustMPH,Humidity,HourlyPrecipIn,Conditions,Clouds,dailyrainin,SoftwareType,DateUTC
2013-04-25 00:01:00,45.0,39.0,-100.00,North,-999,0.0,0.0,81,-99.99,,,-99.99,,2013-04-25 07:01:00,
2013-04-25 00:11:00,44.0,39.0,-100.00,North,-999,0.0,0.0,82,-99.99,,,-99.99,,2013-04-25 07:11:00,
2013-04-25 00:21:00,44.0,39.0,-100.00,North,-999,0.0,0.0,83,-99.99,,,-99.99,,2013-04-25 07:21:00,
2013-04-25 00:31:00,44.0,39.0,-100.00,North,-999,0.0,0.0,83,-99.99,,,-99.99,,2013-04-25 07:31:00,
2013-04-25 00:42:00,44.0,39.0,-100.00,North,-999,0.0,0.0,83,-99.99,,,-99.99,,2013-04-25 07:42:00,
2013-04-25 00:52:00,43.0,39.0,-100.00,North,-999,0.0,0.0,85,-99.99,,,-99.99,,2013-04-25 07:52:00,
2013-04-25 01:01:00,43.0,39.0,-100.00,North,-999,0.0,0.0,85,-99.99,,,-99.99,,2013-04-25 08:01:00,
2013-04-25 01:11:00,42.0,38.0,-100.00,SW,225,1.0,1.0,86,-99.99,,,-99.99,,2013-04-25 08:11:00,
2013-04-25 01:21:00,42.0,38.0,-100.00,SW,225,0.0,1.0,86,-99.99,,,-99.99,,2013-04-25 08:21:00,
2013-04-25 01:31:00,42.0,38.0,-100.00,SW,225,0.0,1.0,86,-99.99,,,-99.99,,2013-04-25 08:31:00,
2013-04-25 01:41:00,42.0,38.0,-100.00,North,-999,0.0,0.0,87,-99.99,,,-99.99,,2013-04-25 08:41:00,
2013-04-25 01:52:00,41.0,38.0,-100.00,West,270,1.0,1.0,88,-99.99,,,-99.99,,2013-04-25 08:52:00,
2013-04-25 02:01:00,41.0,38.0,-100.00,West,270,1.0,1.0,88,-99.99,,,-99.99,,2013-04-25 09:01:00,
2013-04-25 02:11:00,41.0,38.0,-100.00,North,-999,0.0,0.0,88,-99.99,,,-99.99,,2013-04-25 09:11:00,
2013-04-25 02:21:00,41.0,38.0,-100.00,SW,225,0.0,1.0,88,-99.99,,,-99.99,,2013-04-25 09:21:00,
2013-04-25 02:32:00,40.0,37.0,-100.00,North,-999,0.0,0.0,89,-99.99,,,-99.99,,2013-04-25 09:32:00,
2013-04-25 02:42:00,40.0,37.0,-100.00,North,-999,0.0,0.0,89,-99.99,,,-99.99,,2013-04-25 09:42:00,
2013-04-25 02:52:00,40.0,37.0,-100.00,West,270,1.0,1.0,89,-99.99,,,-99.99,,2013-04-25 09:52:00,
2013-04-25 03:02:00,40.0,37.0,-100.00,West,270,1.0,1.0,89,-99.99,,,-99.99,,2013-04-25 10:02:00,
2013-04-25 03:12:00,40.0,37.0,-100.00,West,270,1.0,1.0,89,-99.99,,,-99.99,,2013-04-25 10:12:00,
2013-04-25 03:22:00,40.0,37.0,-100.00,North,-999,0.0,0.0,89,-99.99,,,-99.99,,2013-04-25 10:22:00,
2013-04-25 03:32:00,40.0,37.0,-100.00,North,-999,0.0,0.0,89,-99.99,,,-99.99,,2013-04-25 10:32:00,
2013-04-25 03:42:00,40.0,37.0,-100.00,North,-999,0.0,0.0,89,-99.99,,,-99.99,,2013-04-25 10:42:00,
2013-04-25 03:53:00,39.0,36.0,-100.00,North,-999,0.0,0.0,89,-99.99,,,-99.99,,2013-04-25 10:53:00,
2013-04-25 04:02:00,39.0,36.0,-100.00,North,-999,0.0,0.0,89,-99.99,,,-99.99,,2013-04-25 11:02:00,
2013-04-25 04:12:00,39.0,36.0,-100.00,North,-999,0.0,0.0,89,-99.99,,,-99.99,,2013-04-25 11:12:00,
2013-04-25 04:22:00,39.0,36.0,-100.00,North,-999,0.0,0.0,89,-99.99,,,-99.99,,2013-04-25 11:22:00,
2013-04-25 04:32:00,39.0,36.0,-100.00,North,-999,0.0,0.0,89,-99.99,,,-99.99,,2013-04-25 11:32:00,
2013-04-25 04:42:00,39.0,36.0,-100.00,North,-999,0.0,0.0,90,-99.99,,,-99.99,,2013-04-25 11:42:00,
2013-04-25 04:52:00,39.0,36.0,-100.00,North,-999,0.0,0.0,90,-99.99,,,-99.99,,2013-04-25 11:52:00,
2013-04-25 05:01:00,39.0,36.0,-100.00,North,-999,0.0,0.0,90,-99.99,,,-99.99,,2013-04-25 12:01:00,
2013-04-25 05:12:00,38.0,36.0,-100.00,North,-999,0.0,0.0,90,-99.99,,,-99.99,,2013-04-25 12:12:00,
2013-04-25 05:21:00,38.0,35.0,-100.00,North,-999,0.0,0.0,90,-99.99,,,-99.99,,2013-04-25 12:21:00,
2013-04-25 05:31:00,38.0,35.0,-100.00,North,-999,0.0,0.0,90,-99.99,,,-99.99,,2013-04-25 12:31:00,
2013-04-25 05:52:00,38.0,35.0,-100.00,North,-999,0.0,0.0,90,-99.99,,,-99.99,,2013-04-25 12:52:00,
2013-04-25 06:02:00,38.0,35.0,-100.00,North,-999,0.0,0.0,90,-99.99,,,-99.99,,2013-04-25 13:02:00,
2013-04-25 06:11:00,37.0,35.0,-100.00,North,-999,0.0,0.0,90,-99.99,,,-99.99,,2013-04-25 13:11:00,
2013-04-25 06:21:00,37.0,34.0,-100.00,South,180,0.0,1.0,90,-99.99,,,-99.99,,2013-04-25 13:21:00,
2013-04-25 06:31:00,37.0,34.0,-100.00,South,180,0.0,1.0,90,-99.99,,,-99.99,,2013-04-25 13:31:00,
2013-04-25 06:42:00,37.0,34.0,-100.00,North,-999,0.0,0.0,90,-99.99,,,-99.99,,2013-04-25 13:42:00,
2013-04-25 06:52:00,37.0,34.0,-100.00,North,-999,0.0,0.0,90,-99.99,,,-99.99,,2013-04-25 13:52:00,
2013-04-25 07:01:00,37.0,34.0,-100.00,North,-999,0.0,0.0,90,-99.99,,,-99.99,,2013-04-25 14:01:00,
2013-04-25 07:11:00,37.0,34.0,-100.00,North,0,1.0,1.0,90,-99.99,,,-99.99,,2013-04-25 14:11:00,
2013-04-25 07:21:00,37.0,34.0,-100.00,North,-999,0.0,0.0,90,-99.99,,,-99.99,,2013-04-25 14:21:00,
2013-04-25 07:32:00,37.0,34.0,-100.00,North,-999,0.0,0.0,90,-99.99,,,-99.99,,2013-04-25 14:32:00,
2013-04-25 07:42:00,37.0,34.0,-100.00,North,-999,0.0,0.0,90,-99.99,,,-99.99,,2013-04-25 14:42:00,
2013-04-25 07:52:00,37.0,35.0,-100.00,South,180,0.0,1.0,90,-99.99,,,-99.99,,2013-04-25 14:52:00,
2013-04-25 08:02:00,37.0,35.0,-100.00,South,180,0.0,1.0,90,-99.99,,,-99.99,,2013-04-25 15:02:00,
2013-04-25 08:11:00,38.0,35.0,-100.00,North,-999,0.0,0.0,90,-99.99,,,-99.99,,2013-04-25 15:11:00,
2013-04-25 08:21:00,39.0,37.0,-100.00,North,-999,0.0,0.0,91,-99.99,,,-99.99,,2013-04-25 15:21:00,
2013-04-25 08:33:00,39.0,37.0,-100.00,North,-999,0.0,0.0,91,-99.99,,,-99.99,,2013-04-25 15:33:00,
2013-04-25 08:42:00,39.0,37.0,-100.00,North,-999,0.0,0.0,91,-99.99,,,-99.99,,2013-04-25 15:42:00,
2013-04-25 08:53:00,40.0,38.0,-100.00,North,-999,0.0,0.0,91,-99.99,,,-99.99,,2013-04-25 15:53:00,
2013-04-25 09:02:00,40.0,38.0,-100.00,North,-999,0.0,0.0,91,-99.99,,,-99.99,,2013-04-25 16:02:00,
2013-04-25 17:21:00,65.0,39.0,-100.00,SW,225,2.0,3.0,37,-99.99,,,-99.99,,2013-04-26 00:21:00,
2013-04-25 17:31:00,65.0,39.0,-100.00,SW,225,2.0,3.0,37,-99.99,,,-99.99,,2013-04-26 00:31:00,
2013-04-25 17:41:00,66.0,40.0,-100.00,SW,225,3.0,4.0,38,-99.99,,,-99.99,,2013-04-26 00:41:00,
2013-04-25 17:52:00,66.0,39.0,-100.00,SW,225,3.0,5.0,38,-99.99,,,-99.99,,2013-04-26 00:52:00,
2013-04-25 18:01:00,66.0,39.0,-100.00,SW,225,3.0,5.0,38,-99.99,,,-99.99,,2013-04-26 01:01:00,
2013-04-25 18:11:00,65.0,39.0,-100.00,SW,225,3.0,4.0,38,-99.99,,,-99.99,,2013-04-26 01:11:00,
2013-04-25 18:21:00,64.0,39.0,-100.00,SW,225,3.0,6.0,40,-99.99,,,-99.99,,2013-04-26 01:21:00,
2013-04-25 18:31:00,64.0,39.0,-100.00,SW,225,3.0,6.0,40,-99.99,,,-99.99,,2013-04-26 01:31:00,
2013-04-25 18:41:00,64.0,39.0,-100.00,SW,225,4.0,5.0,40,-99.99,,,-99.99,,2013-04-26 01:41:00,
2013-04-25 18:52:00,64.0,39.0,-100.00,SW,225,3.0,6.0,40,-99.99,,,-99.99,,2013-04-26 01:52:00,
2013-04-25 19:01:00,64.0,39.0,-100.00,SW,225,3.0,6.0,40,-99.99,,,-99.99,,2013-04-26 02:01:00,
2013-04-25 19:11:00,63.0,39.0,-100.00,SW,225,6.0,8.0,41,-99.99,,,-99.99,,2013-04-26 02:11:00,
2013-04-25 19:21:00,62.0,40.0,-100.00,West,270,1.0,3.0,43,-99.99,,,-99.99,,2013-04-26 02:21:00,
2013-04-25 19:32:00,62.0,40.0,-100.00,West,270,1.0,3.0,43,-99.99,,,-99.99,,2013-04-26 02:32:00,
2013-04-25 19:42:00,61.0,40.0,-100.00,West,270,3.0,5.0,45,-99.99,,,-99.99,,2013-04-26 02:42:00,
2013-04-25 19:52:00,60.0,40.0,-100.00,SW,225,3.0,5.0,49,-99.99,,,-99.99,,2013-04-26 02:52:00,
2013-04-25 20:01:00,60.0,40.0,-100.00,SW,225,3.0,5.0,49,-99.99,,,-99.99,,2013-04-26 03:01:00,
2013-04-25 20:11:00,59.0,41.0,-100.00,SW,225,3.0,4.0,52,-99.99,,,-99.99,,2013-04-26 03:11:00,
2013-04-25 20:21:00,58.0,42.0,-100.00,SW,225,3.0,3.0,55,-99.99,,,-99.99,,2013-04-26 03:21:00,
2013-04-25 20:32:00,58.0,42.0,-100.00,SW,225,3.0,3.0,55,-99.99,,,-99.99,,2013-04-26 03:32:00,
2013-04-25 20:43:00,57.0,42.0,-100.00,SW,225,1.0,2.0,57,-99.99,,,-99.99,,2013-04-26 03:43:00,
2013-04-25 20:53:00,56.0,42.0,-100.00,SW,225,1.0,2.0,60,-99.99,,,-99.99,,2013-04-26 03:53:00,
2013-04-25 21:02:00,56.0,42.0,-100.00,SW,225,1.0,2.0,60,-99.99,,,-99.99,,2013-04-26 04:02:00,
2013-04-25 21:12:00,55.0,43.0,-100.00,West,270,2.0,4.0,63,-99.99,,,-99.99,,2013-04-26 04:12:00,
2013-04-25 21:22:00,54.0,43.0,-100.00,West,270,2.0,3.0,67,-99.99,,,-99.99,,2013-04-26 04:22:00,
2013-04-25 21:32:00,54.0,43.0,-100.00,West,270,2.0,3.0,67,-99.99,,,-99.99,,2013-04-26 04:32:00,
2013-04-25 21:43:00,53.0,44.0,-100.00,West,270,1.0,2.0,70,-99.99,,,-99.99,,2013-04-26 04:43:00,
2013-04-25 21:53:00,52.0,44.0,-100.00,North,-999,0.0,0.0,72,-99.99,,,-99.99,,2013-04-26 04:53:00,
2013-04-25 22:02:00,52.0,44.0,-100.00,North,-999,0.0,0.0,72,-99.99,,,-99.99,,2013-04-26 05:02:00,
2013-04-25 22:12:00,51.0,43.0,-100.00,West,270,1.0,1.0,75,-99.99,,,-99.99,,2013-04-26 05:12:00,
2013-04-25 22:22:00,50.0,43.0,-100.00,North,-999,0.0,0.0,77,-99.99,,,-99.99,,2013-04-26 05:22:00,
2013-04-25 22:32:00,50.0,43.0,-100.00,North,-999,0.0,0.0,77,-99.99,,,-99.99,,2013-04-26 05:32:00,
2013-04-25 22:42:00,50.0,44.0,-100.00,SW,225,0.0,1.0,79,-99.99,,,-99.99,,2013-04-26 05:42:00,
2013-04-25 22:52:00,49.0,43.0,-100.00,West,270,1.0,2.0,80,-99.99,,,-99.99,,2013-04-26 05:52:00,
2013-04-25 23:02:00,49.0,43.0,-100.00,West,270,1.0,2.0,80,-99.99,,,-99.99,,2013-04-26 06:02:00,
2013-04-25 23:11:00,49.0,43.0,-100.00,SW,225,1.0,1.0,82,-99.99,,,-99.99,,2013-04-26 06:11:00,
2013-04-25 23:21:00,48.0,43.0,-100.00,North,-999,0.0,0.0,84,-99.99,,,-99.99,,2013-04-26 06:21:00,
2013-04-25 23:32:00,48.0,43.0,-100.00,North,-999,0.0,0.0,84,-99.99,,,-99.99,,2013-04-26 06:32:00,
2013-04-25 23:41:00,47.0,43.0,-100.00,West,270,1.0,2.0,86,-99.99,,,-99.99,,2013-04-26 06:41:00,
2013-04-25 23:52:00,47.0,43.0,-100.00,SW,225,1.0,2.0,86,-99.99,,,-99.99,,2013-04-26 06:52:00,